21:45
Airports
History
Links
Donate
Help keep this website running!
PayPal
Bitcoin
This page is community maintained. The information is intended for PC simulator navigation or reference.
Always use approved charts for navigation.
EHDR
DrachtenEdited 12-Sep-2012
Drachten (EHDR)
Drachten, Friesland, Netherlands (9202)
(C)
Lat/Lng:53° 7' 9" N / 6° 7' 47" E
53.119166 / 6.129723
Elevation:14'ft / 4mMSL
ID / ICAO:EHDR
Runways:1
Longest:(08-26) 949.5m / 3,115ft Asphalt
Controlled:Yes
Distance To
Airport ID:
Airport Radio Frequencies
Tower: 132.35
Nearby VORs <50NM
Nearby NDBs
Nearby WeatherUpdated 08-16-17 21:25 GMT
Nearby weather at EHLW, Leeuwarden located 17.2 nautical miles from EHDR
Altimeter: 30.06
Visibility: 6.2 statute miles
Wind: 4 knots (180°)
Temp: 17°c 63°f
Humidity: 82.5%

METAR: EHLW 162125Z AUTO 18004KT 140V210 9999 BKN046 BKN051 BKN056 17/14 Q1018 BLU

(Powered by phpweather)
Runway 08 / 26
Dimensions:949.5 x 31.1m 3115' x 102'ft
Surface:Asphalt
Runway 08 [A]Runway 26 [B]
Heading:076°TH 256°TH
Lat:
Lng:
53° 7' 2.15"N
6° 7' 20.16"E
53° 7' 9.33"N
6° 8' 10.03"E
Edited 09-12-122
User Notes and Comments
Google Map
Nearby Airports
(C) Leeuwarden 17.2 NM
EHLW (WX) WNW 295°
(C) Eelde 18.7 NM
EHGG (WX) E 89°
(C) Ameland 29.5 NM
EHAL NW 321°
4 Emmeloord 31.3 NM
EHNP SSW 210°
(C) Hoogeveen 31.5 NM
EHHO SSE 148°
4 Voorst Sport 32.2 NM
EHDV SSW 195°
4 Oostwold 37.9 NM
EHOW E 81°
VFR Chart
Flight Planning at SkyVector.com